KMLS

Frank Wiley Field Airport

Miles City, Montana, USA
METAR KMLS 230453Z AUTO 03007KT 10SM CLR 02/M04 A3021 RMK AO2 SLP244 T00171039 $
Observed Flight Rules
Oct-23 @ 04:53 UTC (an hour ago) Visual Flight Rules
Wind Visibility Clouds
30° at 7 knots 10 miles
  • Clear skies
Temperatures Readings
Current 2°C / 36°F
Dewpoint -4°C / 25°F
Humidity 65%
Altimeter 30.21" Hg
Pressure 1024.4 hPa
Elevation 801
METAR KMLS 230453Z AUTO 03007KT 10SM CLR 02/M04 A3021 RMK AO2 SLP244 T00171039 $
Observed Flight Rules
Oct-23 @ 04:53 UTC
(an hour ago)
VFR
Wind Visibility
30° at 7 knots 10 miles
Clouds
  • Clear skies
Temperature Dewpoint
2°C / 36°F -4°C / 25°F
Humidity Altimeter Pressure
65% 30.21" Hg 1024.4 hPa